createdAt,value
2023-03-26T00:02:09.594Z,13.60
2023-03-26T00:04:38.655Z,10.60
2023-03-26T00:07:07.140Z,10.50
2023-03-26T00:09:35.622Z,13.20
2023-03-26T00:12:06.255Z,12.80
2023-03-26T00:14:35.759Z,14.10
2023-03-26T00:17:04.763Z,8.90
2023-03-26T00:19:34.260Z,9.60
2023-03-26T00:22:03.796Z,9.10
2023-03-26T00:24:32.355Z,9.60
2023-03-26T00:27:01.341Z,10.80
2023-03-26T00:29:33.619Z,10.90
2023-03-26T00:32:02.493Z,7.50
2023-03-26T00:34:31.091Z,9.80
2023-03-26T00:37:02.561Z,11.70
2023-03-26T00:39:36.150Z,9.50
2023-03-26T00:42:07.027Z,10.90
2023-03-26T00:44:36.085Z,9.60
2023-03-26T00:47:04.577Z,8.50
2023-03-26T00:49:33.560Z,7.70
2023-03-26T00:52:03.386Z,8.30
2023-03-26T00:54:32.176Z,11.70
2023-03-26T00:57:00.575Z,9.50
2023-03-26T00:59:30.530Z,8.90
2023-03-26T01:01:59.110Z,11.10
2023-03-26T01:04:31.024Z,9.00
2023-03-26T01:07:22.752Z,6.50
2023-03-26T01:09:51.937Z,11.60
2023-03-26T01:12:24.187Z,6.70
2023-03-26T01:14:56.783Z,8.00
2023-03-26T01:17:25.655Z,9.60
2023-03-26T01:20:32.362Z,7.60
2023-03-26T01:23:05.616Z,6.60
2023-03-26T01:25:43.652Z,7.80
2023-03-26T01:28:12.952Z,7.20
2023-03-26T01:30:58.780Z,7.20
2023-03-26T01:34:12.657Z,7.30
2023-03-26T01:37:06.477Z,7.80
2023-03-26T01:39:43.145Z,9.60
2023-03-26T01:42:16.301Z,6.90
2023-03-26T01:44:48.707Z,11.70
2023-03-26T01:47:18.601Z,6.70
2023-03-26T01:49:47.173Z,6.90
2023-03-26T01:52:21.469Z,7.50
2023-03-26T01:54:50.619Z,6.70
2023-03-26T01:57:30.677Z,8.00
2023-03-26T02:00:36.635Z,7.20
2023-03-26T02:03:21.365Z,6.80
2023-03-26T02:06:07.808Z,7.90
2023-03-26T02:08:42.222Z,10.40
2023-03-26T02:11:16.478Z,8.30
2023-03-26T02:13:46.836Z,6.50
2023-03-26T02:16:17.681Z,7.50
2023-03-26T02:18:51.921Z,11.10
2023-03-26T02:21:23.117Z,10.20
2023-03-26T02:24:03.345Z,8.00
2023-03-26T02:26:35.801Z,9.40
2023-03-26T02:29:14.529Z,6.70
2023-03-26T02:31:44.666Z,10.20
2023-03-26T02:34:13.226Z,7.00
2023-03-26T02:36:47.389Z,6.60
2023-03-26T02:39:15.880Z,9.90
2023-03-26T02:41:49.613Z,6.90
2023-03-26T02:44:18.215Z,8.60
2023-03-26T02:47:02.270Z,7.20
2023-03-26T02:49:49.388Z,5.80
2023-03-26T02:52:36.470Z,5.70
2023-03-26T02:55:05.700Z,5.50
2023-03-26T02:57:35.010Z,6.20
2023-03-26T03:00:09.261Z,3.70
2023-03-26T03:02:41.478Z,5.00
2023-03-26T03:05:31.843Z,5.00
2023-03-26T03:08:20.846Z,4.70
2023-03-26T03:11:23.935Z,5.50
2023-03-26T03:13:54.329Z,4.20
2023-03-26T03:16:31.460Z,5.90
2023-03-26T03:19:06.480Z,5.30
2023-03-26T03:21:40.983Z,6.70
2023-03-26T03:24:11.776Z,5.80
2023-03-26T03:26:48.598Z,4.80
2023-03-26T03:29:32.983Z,4.00
2023-03-26T03:32:14.407Z,3.60
2023-03-26T03:34:46.590Z,6.10
2023-03-26T03:37:14.901Z,5.40
2023-03-26T03:39:48.246Z,4.20
2023-03-26T03:42:19.149Z,4.60
2023-03-26T03:44:47.760Z,4.40
2023-03-26T03:47:36.524Z,4.60
2023-03-26T03:50:07.116Z,5.40
2023-03-26T03:52:36.061Z,6.20
2023-03-26T03:55:05.734Z,5.70
2023-03-26T03:57:54.629Z,6.30
2023-03-26T04:03:06.738Z,6.10
2023-03-26T04:05:36.833Z,4.70
2023-03-26T04:08:05.463Z,5.00
2023-03-26T04:11:00.736Z,7.30
2023-03-26T04:13:48.701Z,4.60
2023-03-26T04:16:56.083Z,5.50
2023-03-26T04:19:25.089Z,4.20
2023-03-26T04:21:54.700Z,6.70
2023-03-26T04:24:24.887Z,7.30
2023-03-26T04:27:25.767Z,5.20
2023-03-26T04:29:54.760Z,8.80
2023-03-26T04:32:29.995Z,5.70
2023-03-26T04:35:03.963Z,7.40
2023-03-26T04:37:39.971Z,6.90
2023-03-26T04:40:20.980Z,10.40
2023-03-26T04:43:00.181Z,7.90
2023-03-26T04:46:03.609Z,5.80
2023-03-26T04:48:36.862Z,7.70
2023-03-26T04:51:10.310Z,6.80
2023-03-26T04:53:38.758Z,7.00
2023-03-26T04:57:06.631Z,7.80
2023-03-26T04:59:48.419Z,5.60
2023-03-26T05:02:18.338Z,7.50
2023-03-26T05:04:50.857Z,9.80
2023-03-26T05:07:25.548Z,7.90
2023-03-26T05:09:58.330Z,8.10
2023-03-26T05:12:37.147Z,9.80
2023-03-26T05:15:12.705Z,6.00
2023-03-26T05:17:53.154Z,7.80
2023-03-26T05:20:30.504Z,7.30
2023-03-26T05:22:59.370Z,8.30
2023-03-26T05:25:30.791Z,8.70
2023-03-26T05:27:59.584Z,6.70
2023-03-26T05:30:33.188Z,8.30
2023-03-26T05:33:03.150Z,7.90
2023-03-26T05:35:38.276Z,8.20
2023-03-26T05:38:09.499Z,7.20
2023-03-26T05:40:38.594Z,7.50
2023-03-26T05:43:08.500Z,6.80
2023-03-26T05:45:48.914Z,7.60
2023-03-26T05:48:29.121Z,9.20
2023-03-26T05:50:59.075Z,6.40
2023-03-26T05:53:28.639Z,8.10
2023-03-26T05:56:13.320Z,9.50
2023-03-26T05:59:00.830Z,8.30
2023-03-26T06:01:35.758Z,7.80
2023-03-26T06:04:16.146Z,9.50
2023-03-26T06:07:11.849Z,8.90
2023-03-26T06:09:44.013Z,9.50
2023-03-26T06:12:13.116Z,7.30
2023-03-26T06:14:43.095Z,7.90
2023-03-26T06:17:19.758Z,7.50
2023-03-26T06:20:09.246Z,7.20
2023-03-26T06:22:41.865Z,10.40
2023-03-26T06:25:21.286Z,6.90
2023-03-26T06:27:57.550Z,7.70
2023-03-26T06:30:49.195Z,8.50
2023-03-26T06:33:30.466Z,10.10
2023-03-26T06:36:01.179Z,9.10
2023-03-26T06:38:29.992Z,8.60
2023-03-26T06:41:07.382Z,8.20
2023-03-26T06:44:05.665Z,12.50
2023-03-26T06:50:01.547Z,5.60
2023-03-26T06:53:03.083Z,6.00
2023-03-26T06:55:50.253Z,4.70
2023-03-26T06:58:40.000Z,5.40
2023-03-26T07:01:27.612Z,5.70
2023-03-26T07:04:14.856Z,6.10
2023-03-26T07:07:01.944Z,6.20
2023-03-26T07:09:49.575Z,8.10
2023-03-26T07:12:42.630Z,5.30
2023-03-26T07:15:43.806Z,4.10
2023-03-26T07:18:24.760Z,5.10
2023-03-26T07:20:55.663Z,5.60
2023-03-26T07:23:25.732Z,4.70
2023-03-26T07:25:59.421Z,5.80
2023-03-26T07:29:11.323Z,6.10
2023-03-26T07:32:14.108Z,7.80
2023-03-26T07:35:17.786Z,6.70
2023-03-26T07:38:29.718Z,6.00
2023-03-26T07:41:28.817Z,8.30
2023-03-26T07:44:25.874Z,6.70
2023-03-26T07:47:11.246Z,5.60
2023-03-26T07:50:00.605Z,6.50
2023-03-26T07:52:49.738Z,5.90
2023-03-26T07:55:31.723Z,5.70
2023-03-26T07:58:44.915Z,6.20
2023-03-26T08:01:53.573Z,10.10
2023-03-26T08:04:48.683Z,6.80
2023-03-26T08:08:05.459Z,6.80
2023-03-26T08:11:26.679Z,7.90
2023-03-26T08:14:08.061Z,6.00
2023-03-26T08:16:54.695Z,28.20
2023-03-26T08:19:49.405Z,32.80
2023-03-26T08:22:18.051Z,7.50
2023-03-26T08:25:25.773Z,10.50
2023-03-26T08:28:41.149Z,11.30
2023-03-26T08:31:13.981Z,13.80
2023-03-26T08:33:42.401Z,6.80
2023-03-26T08:36:11.189Z,19.00
2023-03-26T08:38:39.674Z,8.30
2023-03-26T08:41:11.377Z,8.90
2023-03-26T08:46:31.688Z,9.70
2023-03-26T08:49:16.093Z,11.30
2023-03-26T08:52:12.536Z,2.70
2023-03-26T08:55:03.855Z,2.50
2023-03-26T08:57:46.880Z,1.70
2023-03-26T09:00:37.257Z,2.30
2023-03-26T09:03:31.282Z,5.20
2023-03-26T09:05:59.943Z,3.30
2023-03-26T09:08:54.339Z,4.80
2023-03-26T09:11:43.003Z,1.60
2023-03-26T09:14:36.972Z,2.00
2023-03-26T09:17:33.250Z,2.90
2023-03-26T09:20:19.304Z,1.50
2023-03-26T09:22:50.240Z,1.90
2023-03-26T09:26:13.198Z,2.10
2023-03-26T09:28:53.973Z,1.60
2023-03-26T09:31:45.919Z,3.00
2023-03-26T09:37:57.429Z,3.50
2023-03-26T09:40:45.055Z,3.00
2023-03-26T09:43:36.699Z,5.50
2023-03-26T09:46:08.383Z,3.00
2023-03-26T09:49:12.350Z,4.90
2023-03-26T09:51:49.074Z,2.90
2023-03-26T09:54:48.684Z,3.40
2023-03-26T09:57:53.991Z,3.70
2023-03-26T10:00:53.715Z,2.40
2023-03-26T10:03:43.992Z,2.00
2023-03-26T10:06:31.830Z,1.80
2023-03-26T10:09:38.826Z,2.20
2023-03-26T10:12:23.888Z,2.30
2023-03-26T10:15:10.017Z,3.40
2023-03-26T10:17:57.456Z,5.30
2023-03-26T10:20:29.373Z,2.00
2023-03-26T10:23:22.596Z,2.10
2023-03-26T10:26:17.145Z,2.70
2023-03-26T10:29:01.820Z,1.50
2023-03-26T10:31:40.721Z,4.60
2023-03-26T10:34:29.706Z,2.70
2023-03-26T10:37:22.234Z,2.10
2023-03-26T10:40:18.872Z,2.30
2023-03-26T10:43:14.386Z,4.30
2023-03-26T10:46:05.179Z,2.50
2023-03-26T10:48:48.153Z,3.40
2023-03-26T10:51:44.932Z,2.40
2023-03-26T10:54:32.286Z,2.30
2023-03-26T10:57:03.282Z,2.40
2023-03-26T10:59:32.324Z,3.10
2023-03-26T11:02:21.288Z,2.90
2023-03-26T11:05:39.878Z,2.60
2023-03-26T11:08:31.647Z,2.80
2023-03-26T11:11:27.296Z,3.60
2023-03-26T11:14:01.838Z,7.10
2023-03-26T11:16:57.750Z,4.30
2023-03-26T11:19:43.436Z,3.00
2023-03-26T11:22:32.482Z,2.90
2023-03-26T11:25:36.622Z,2.70
2023-03-26T11:28:36.440Z,3.30
2023-03-26T11:31:19.803Z,3.70
2023-03-26T11:33:53.050Z,4.70
2023-03-26T11:36:32.399Z,6.60
2023-03-26T11:39:05.904Z,4.20
2023-03-26T11:41:35.310Z,3.80
2023-03-26T11:44:35.024Z,1.80
2023-03-26T11:47:10.349Z,3.50
2023-03-26T11:49:42.656Z,2.90
2023-03-26T11:52:12.641Z,2.20
2023-03-26T11:54:41.086Z,5.60
2023-03-26T11:57:33.540Z,3.30
2023-03-26T12:00:16.509Z,2.50
2023-03-26T12:02:47.581Z,5.90
2023-03-26T12:05:21.892Z,3.60
2023-03-26T12:07:57.855Z,3.00
2023-03-26T12:10:38.356Z,3.80
2023-03-26T12:13:22.330Z,3.60
2023-03-26T12:15:51.219Z,5.80
2023-03-26T12:18:28.939Z,4.20
2023-03-26T12:21:08.098Z,3.40
2023-03-26T12:23:39.402Z,6.00
2023-03-26T12:26:21.002Z,3.40
2023-03-26T12:28:51.637Z,4.70
2023-03-26T12:31:20.595Z,5.50
2023-03-26T12:34:14.293Z,3.90
2023-03-26T12:37:01.210Z,4.50
2023-03-26T12:40:07.133Z,4.50
2023-03-26T12:44:51.243Z,4.20
2023-03-26T12:45:28.236Z,6.00
2023-03-26T12:48:03.428Z,5.10
2023-03-26T12:50:58.798Z,5.30
2023-03-26T12:53:46.388Z,3.40
2023-03-26T12:56:27.568Z,5.20
2023-03-26T12:59:22.369Z,2.80
2023-03-26T13:01:58.854Z,3.20
2023-03-26T13:05:06.228Z,5.60
2023-03-26T13:08:00.632Z,4.00
2023-03-26T13:11:01.876Z,3.40
2023-03-26T13:13:33.233Z,3.10
2023-03-26T13:16:29.136Z,2.40
2023-03-26T13:19:07.567Z,2.50
2023-03-26T13:22:01.825Z,4.50
2023-03-26T13:24:39.252Z,4.50
2023-03-26T13:27:15.217Z,4.60
2023-03-26T13:30:09.700Z,5.20
2023-03-26T13:32:48.371Z,3.80
2023-03-26T13:35:30.589Z,2.10
2023-03-26T13:38:20.415Z,3.00
2023-03-26T13:41:04.150Z,2.10
2023-03-26T13:44:05.603Z,5.10
2023-03-26T13:46:43.667Z,2.20
2023-03-26T13:49:37.517Z,3.20
2023-03-26T13:52:18.261Z,3.20
2023-03-26T13:55:02.726Z,3.80
2023-03-26T13:57:40.621Z,4.00
2023-03-26T14:00:57.085Z,2.90
2023-03-26T14:03:58.234Z,2.70
2023-03-26T14:06:57.763Z,3.80
2023-03-26T14:09:43.371Z,4.20
2023-03-26T14:12:44.941Z,4.00
2023-03-26T14:15:35.020Z,3.60
2023-03-26T14:18:31.770Z,5.00
2023-03-26T14:21:12.223Z,2.40
2023-03-26T14:24:13.579Z,1.40
2023-03-26T14:27:22.306Z,2.10
2023-03-26T14:30:11.586Z,2.10
2023-03-26T14:33:10.834Z,4.20
2023-03-26T14:36:22.679Z,2.70
2023-03-26T14:39:00.686Z,1.90
2023-03-26T14:41:58.862Z,2.10
2023-03-26T14:44:48.040Z,1.80
2023-03-26T14:47:19.285Z,4.00
2023-03-26T14:50:14.000Z,3.30
2023-03-26T14:52:52.026Z,3.80
2023-03-26T14:55:45.768Z,2.50
2023-03-26T14:58:48.446Z,4.00
2023-03-26T15:01:50.941Z,4.10
2023-03-26T15:04:58.836Z,3.90
2023-03-26T15:07:44.769Z,4.80
2023-03-26T15:10:22.971Z,2.40
2023-03-26T15:13:27.030Z,3.90
2023-03-26T15:16:07.858Z,3.10
2023-03-26T15:19:18.905Z,6.80
2023-03-26T15:22:06.195Z,4.10
2023-03-26T15:25:26.322Z,4.80
2023-03-26T15:28:16.824Z,4.40
2023-03-26T15:31:37.254Z,3.30
2023-03-26T15:34:30.585Z,4.60
2023-03-26T15:37:01.838Z,10.80
2023-03-26T15:42:55.121Z,7.20
2023-03-26T15:45:41.268Z,8.80
2023-03-26T15:48:13.141Z,3.20
2023-03-26T15:51:13.200Z,4.60
2023-03-26T15:54:02.879Z,4.10
2023-03-26T15:56:43.270Z,7.90
2023-03-26T15:59:50.061Z,5.90
2023-03-26T16:02:40.276Z,9.40
2023-03-26T16:05:36.974Z,4.30
2023-03-26T16:08:41.749Z,5.80
2023-03-26T16:11:12.854Z,4.30
2023-03-26T16:14:12.661Z,4.30
2023-03-26T16:16:53.081Z,5.80
2023-03-26T16:19:22.726Z,3.00
2023-03-26T16:22:42.547Z,3.30
2023-03-26T16:25:52.981Z,8.20
2023-03-26T16:28:29.181Z,5.80
2023-03-26T16:31:37.468Z,8.90
2023-03-26T16:34:09.426Z,5.40
2023-03-26T16:36:46.425Z,4.20
2023-03-26T16:39:22.885Z,10.90
2023-03-26T16:42:06.022Z,7.80
2023-03-26T16:44:48.417Z,5.60
2023-03-26T16:47:25.236Z,6.50
2023-03-26T16:50:08.198Z,5.30
2023-03-26T16:52:59.016Z,13.90
2023-03-26T16:55:58.975Z,7.70
2023-03-26T16:58:38.286Z,3.90
2023-03-26T17:01:09.012Z,4.00
2023-03-26T17:03:59.743Z,8.00
2023-03-26T17:07:09.151Z,4.70
2023-03-26T17:09:38.249Z,8.20
2023-03-26T17:12:51.382Z,5.90
2023-03-26T17:15:41.466Z,6.50
2023-03-26T17:18:13.067Z,3.70
2023-03-26T17:23:31.182Z,6.40
2023-03-26T17:26:36.020Z,6.60
2023-03-26T17:29:22.940Z,8.10
2023-03-26T17:32:00.785Z,8.10
2023-03-26T17:34:38.430Z,5.60
2023-03-26T17:37:19.140Z,7.30
2023-03-26T17:39:47.537Z,7.80
2023-03-26T17:42:26.817Z,8.60
2023-03-26T17:44:58.882Z,9.20
2023-03-26T17:47:30.765Z,9.00
2023-03-26T17:52:55.464Z,8.60
2023-03-26T17:55:31.500Z,10.80
2023-03-26T17:58:03.077Z,6.90
2023-03-26T18:00:43.714Z,6.80
2023-03-26T18:03:24.471Z,9.20
2023-03-26T18:05:57.623Z,7.40
2023-03-26T18:08:52.514Z,11.40
2023-03-26T18:11:42.291Z,6.70
2023-03-26T18:14:29.716Z,8.20
2023-03-26T18:17:01.030Z,8.20
2023-03-26T18:19:32.105Z,13.30
2023-03-26T18:22:07.756Z,10.80
2023-03-26T18:24:41.388Z,10.00
2023-03-26T18:27:16.692Z,9.40
2023-03-26T18:30:16.526Z,11.70
2023-03-26T18:32:52.940Z,8.30
2023-03-26T18:35:23.344Z,10.50
2023-03-26T18:37:57.393Z,12.70
2023-03-26T18:40:33.262Z,8.30
2023-03-26T18:43:02.178Z,7.70
2023-03-26T18:45:37.043Z,8.20
2023-03-26T18:48:08.052Z,11.50
2023-03-26T18:50:42.203Z,7.60
2023-03-26T18:53:22.008Z,8.30
2023-03-26T18:55:52.175Z,11.10
2023-03-26T18:58:26.290Z,12.00
2023-03-26T19:01:00.858Z,8.80
2023-03-26T19:03:35.795Z,7.60
2023-03-26T19:06:10.357Z,11.40
2023-03-26T19:08:42.203Z,7.40
2023-03-26T19:11:12.412Z,8.60
2023-03-26T19:13:44.377Z,10.90
2023-03-26T19:16:26.735Z,10.20
2023-03-26T19:18:55.264Z,14.00
2023-03-26T19:21:24.034Z,9.10
2023-03-26T19:23:54.586Z,11.70
2023-03-26T19:26:23.681Z,12.30
2023-03-26T19:28:56.373Z,9.40
2023-03-26T19:31:30.475Z,12.10
2023-03-26T19:34:15.032Z,7.20
2023-03-26T19:37:02.257Z,8.90
2023-03-26T19:39:42.889Z,9.60
2023-03-26T19:42:18.275Z,11.20
2023-03-26T19:44:46.992Z,8.00
2023-03-26T19:47:43.137Z,10.10
2023-03-26T19:50:33.494Z,6.60
2023-03-26T19:53:17.025Z,6.70
2023-03-26T19:56:13.578Z,10.90
2023-03-26T19:58:43.217Z,13.70
2023-03-26T20:01:23.988Z,15.50
2023-03-26T20:03:58.121Z,14.50
2023-03-26T20:06:42.581Z,13.40
2023-03-26T20:09:13.890Z,19.30
2023-03-26T20:11:42.572Z,20.90
2023-03-26T20:14:17.321Z,13.50
2023-03-26T20:16:46.334Z,26.60
2023-03-26T20:19:15.482Z,30.10
2023-03-26T20:21:46.005Z,22.50
2023-03-26T20:24:17.245Z,39.10
2023-03-26T20:26:46.894Z,49.80
2023-03-26T20:29:16.335Z,33.70
2023-03-26T20:31:45.472Z,19.80
2023-03-26T20:34:20.046Z,17.60
2023-03-26T20:36:54.539Z,20.40
2023-03-26T20:39:24.470Z,13.60
2023-03-26T20:41:54.641Z,10.80
2023-03-26T20:44:23.428Z,10.20
2023-03-26T20:46:52.861Z,15.60
2023-03-26T20:49:22.380Z,11.00
2023-03-26T20:51:51.333Z,15.90
2023-03-26T20:54:25.446Z,15.00
2023-03-26T20:56:54.843Z,18.10
2023-03-26T20:59:27.134Z,15.40
2023-03-26T21:01:57.917Z,11.10
2023-03-26T21:04:27.365Z,11.00
2023-03-26T21:07:07.147Z,11.70
2023-03-26T21:09:40.519Z,11.10
2023-03-26T21:12:29.779Z,15.40
2023-03-26T21:14:58.975Z,18.90
2023-03-26T21:17:28.429Z,20.30
2023-03-26T21:20:00.644Z,16.90
2023-03-26T21:22:38.543Z,9.40
2023-03-26T21:25:23.008Z,7.80
2023-03-26T21:28:28.894Z,9.70
2023-03-26T21:31:06.509Z,6.20
2023-03-26T21:33:35.140Z,7.30
2023-03-26T21:36:04.637Z,6.90
2023-03-26T21:38:34.325Z,6.80
2023-03-26T21:41:03.879Z,8.80
2023-03-26T21:43:32.756Z,6.40
2023-03-26T21:46:01.707Z,6.60
2023-03-26T21:48:30.641Z,6.80
2023-03-26T21:51:03.690Z,6.30
2023-03-26T21:53:34.824Z,5.90
2023-03-26T21:56:23.429Z,7.70
2023-03-26T21:59:03.354Z,5.80
2023-03-26T22:01:51.347Z,8.40
2023-03-26T22:04:32.300Z,8.40
2023-03-26T22:07:16.812Z,5.40
2023-03-26T22:09:45.855Z,7.30
2023-03-26T22:12:14.227Z,7.30
2023-03-26T22:14:42.824Z,17.60
2023-03-26T22:17:11.807Z,18.70
2023-03-26T22:19:40.494Z,15.60
2023-03-26T22:22:09.080Z,8.90
2023-03-26T22:24:38.604Z,6.00
2023-03-26T22:27:08.092Z,7.20
2023-03-26T22:29:36.678Z,6.60
2023-03-26T22:32:05.772Z,9.60
2023-03-26T22:34:35.197Z,8.00
2023-03-26T22:37:05.902Z,9.20
2023-03-26T22:39:34.420Z,11.00
2023-03-26T22:42:04.001Z,11.00
2023-03-26T22:44:32.489Z,12.00
2023-03-26T22:47:01.681Z,6.80
2023-03-26T22:49:31.704Z,6.50
2023-03-26T22:52:00.183Z,8.30
2023-03-26T22:54:28.667Z,7.30
2023-03-26T22:56:57.189Z,8.50
2023-03-26T22:59:26.140Z,6.60
2023-03-26T23:01:54.933Z,8.20
2023-03-26T23:04:31.637Z,7.80
2023-03-26T23:07:01.121Z,7.70
2023-03-26T23:09:30.028Z,8.00
2023-03-26T23:11:58.654Z,11.80
2023-03-26T23:14:28.822Z,6.90
2023-03-26T23:16:57.734Z,7.80
2023-03-26T23:19:26.601Z,7.10
2023-03-26T23:21:55.072Z,6.90
2023-03-26T23:24:26.703Z,11.60
2023-03-26T23:26:55.829Z,7.60
2023-03-26T23:29:25.440Z,7.10
2023-03-26T23:31:54.978Z,6.70
2023-03-26T23:34:23.830Z,10.60
2023-03-26T23:36:55.179Z,13.40
2023-03-26T23:39:25.913Z,9.70
2023-03-26T23:41:54.701Z,7.40
2023-03-26T23:44:23.698Z,7.10
2023-03-26T23:46:58.110Z,8.20
2023-03-26T23:49:27.219Z,8.70
2023-03-26T23:51:55.592Z,11.80
2023-03-26T23:54:25.925Z,9.00
2023-03-26T23:56:55.172Z,8.40
2023-03-26T23:59:24.215Z,6.70
